createdAt,value
2022-08-11T00:02:29.733Z,6.85
2022-08-11T00:05:02.567Z,8.55
2022-08-11T00:07:31.524Z,8.07
2022-08-11T00:10:01.055Z,6.45
2022-08-11T00:12:30.333Z,7.72
2022-08-11T00:15:01.133Z,10.07
2022-08-11T00:17:35.688Z,10.55
2022-08-11T00:20:12.446Z,13.00
2022-08-11T00:22:46.875Z,11.88
2022-08-11T00:25:17.989Z,13.25
2022-08-11T00:27:47.968Z,13.43
2022-08-11T00:30:17.318Z,16.40
2022-08-11T00:32:54.943Z,15.40
2022-08-11T00:35:56.159Z,14.15
2022-08-11T00:38:18.347Z,16.23
2022-08-11T00:40:54.287Z,15.52
2022-08-11T00:43:38.048Z,16.73
2022-08-11T00:46:23.109Z,16.30
2022-08-11T00:49:04.858Z,15.70
2022-08-11T00:52:03.863Z,14.18
2022-08-11T00:55:17.003Z,15.52
2022-08-11T00:58:24.448Z,14.57
2022-08-11T01:01:10.533Z,12.52
2022-08-11T01:04:12.267Z,16.73
2022-08-11T01:07:07.904Z,15.35
2022-08-11T01:09:51.187Z,12.85
2022-08-11T01:12:45.433Z,13.43
2022-08-11T01:15:41.240Z,14.55
2022-08-11T01:19:10.415Z,14.18
2022-08-11T01:22:20.657Z,15.07
2022-08-11T01:25:27.724Z,14.43
2022-08-11T01:28:45.489Z,15.00
2022-08-11T01:31:41.293Z,15.15
2022-08-11T01:35:09.117Z,14.27
2022-08-11T01:38:22.919Z,16.05
2022-08-11T01:41:22.414Z,17.15
2022-08-11T01:44:31.674Z,17.73
2022-08-11T01:47:31.505Z,19.98
2022-08-11T01:50:10.937Z,21.52
2022-08-11T01:52:54.597Z,19.52
2022-08-11T01:55:29.580Z,23.00
2022-08-11T01:58:15.383Z,19.65
2022-08-11T02:00:54.772Z,22.35
2022-08-11T02:03:30.953Z,20.42
2022-08-11T02:06:26.044Z,20.80
2022-08-11T02:09:05.626Z,22.02
2022-08-11T02:11:37.567Z,21.00
2022-08-11T02:14:27.528Z,20.65
2022-08-11T02:17:14.306Z,23.02
2022-08-11T02:20:13.301Z,24.20
2022-08-11T02:23:10.299Z,24.23
2022-08-11T02:25:42.420Z,24.30
2022-08-11T02:28:20.681Z,23.33
2022-08-11T02:32:14.920Z,22.88
2022-08-11T02:34:16.085Z,23.38
2022-08-11T02:36:53.731Z,24.15
2022-08-11T02:39:24.997Z,25.30
2022-08-11T02:42:32.782Z,24.83
2022-08-11T02:45:20.539Z,23.95
2022-08-11T02:48:16.788Z,27.55
2022-08-11T02:50:55.745Z,21.45
2022-08-11T02:53:30.907Z,20.40
2022-08-11T02:56:10.097Z,17.70
2022-08-11T02:58:43.598Z,18.75
2022-08-11T03:01:18.377Z,15.80
2022-08-11T03:03:55.034Z,15.65
2022-08-11T03:06:35.782Z,16.55
2022-08-11T03:09:07.979Z,15.35
2022-08-11T03:12:11.433Z,16.02
2022-08-11T03:15:08.171Z,14.88
2022-08-11T03:17:43.149Z,14.43
2022-08-11T03:20:33.156Z,15.23
2022-08-11T03:23:19.927Z,14.55
2022-08-11T03:25:56.237Z,15.38
2022-08-11T03:28:33.501Z,13.20
2022-08-11T03:31:26.172Z,13.00
2022-08-11T03:34:08.139Z,11.67
2022-08-11T03:37:16.862Z,12.73
2022-08-11T03:39:59.031Z,10.77
2022-08-11T03:42:37.600Z,10.67
2022-08-11T03:45:25.316Z,10.90
2022-08-11T03:48:14.042Z,10.50
2022-08-11T03:51:09.481Z,9.77
2022-08-11T03:53:55.493Z,10.93
2022-08-11T03:57:05.530Z,10.33
2022-08-11T04:00:04.423Z,11.05
2022-08-11T04:03:19.986Z,10.17
2022-08-11T04:06:19.578Z,10.03
2022-08-11T04:09:23.573Z,10.60
2022-08-11T04:12:36.609Z,10.27
2022-08-11T04:16:10.800Z,10.77
2022-08-11T04:19:23.962Z,10.43
2022-08-11T04:22:28.904Z,11.43
2022-08-11T04:25:22.508Z,10.30
2022-08-11T04:28:28.656Z,9.97
2022-08-11T04:31:51.856Z,10.43
2022-08-11T04:34:37.269Z,9.50
2022-08-11T04:37:37.278Z,9.57
2022-08-11T04:40:36.278Z,10.47
2022-08-11T04:43:33.189Z,10.13
2022-08-11T04:46:42.372Z,9.20
2022-08-11T04:50:12.445Z,10.03
2022-08-11T04:53:35.817Z,9.70
2022-08-11T04:56:41.885Z,10.20
2022-08-11T05:00:07.508Z,10.13
2022-08-11T05:03:05.521Z,9.23
2022-08-11T05:05:56.867Z,10.17
2022-08-11T05:09:11.281Z,10.13
2022-08-11T05:12:03.835Z,9.60
2022-08-11T05:14:53.691Z,10.13
2022-08-11T05:17:53.434Z,10.07
2022-08-11T05:20:43.401Z,10.33
2022-08-11T05:23:30.604Z,9.80
2022-08-11T05:26:46.313Z,10.77
2022-08-11T05:29:46.517Z,11.20
2022-08-11T05:32:35.899Z,10.37
2022-08-11T05:35:07.629Z,10.13
2022-08-11T05:37:57.769Z,10.73
2022-08-11T05:40:51.471Z,10.50
2022-08-11T05:44:19.817Z,11.50
2022-08-11T05:47:01.094Z,14.67
2022-08-11T05:49:50.421Z,54.47
2022-08-11T05:52:41.840Z,17.13
2022-08-11T05:55:29.712Z,15.27
2022-08-11T05:58:00.706Z,31.23
2022-08-11T06:00:29.671Z,20.60
2022-08-11T06:03:04.193Z,13.43
2022-08-11T06:05:38.439Z,13.07
2022-08-11T06:08:13.670Z,16.10
2022-08-11T06:10:44.710Z,16.30
2022-08-11T06:13:17.655Z,16.47
2022-08-11T06:15:48.020Z,14.13
2022-08-11T06:18:18.533Z,10.33
2022-08-11T06:20:52.064Z,8.00
2022-08-11T06:23:23.304Z,12.15
2022-08-11T06:25:52.679Z,9.40
2022-08-11T06:28:30.693Z,7.05
2022-08-11T06:31:00.466Z,6.13
2022-08-11T06:33:39.819Z,8.98
2022-08-11T06:36:15.129Z,5.75
2022-08-11T06:38:58.196Z,6.47
2022-08-11T06:41:31.995Z,7.30
2022-08-11T06:44:11.959Z,6.03
2022-08-11T06:46:42.897Z,6.35
2022-08-11T06:49:28.978Z,6.82
2022-08-11T06:52:01.773Z,7.40
2022-08-11T06:54:33.867Z,6.70
2022-08-11T06:57:30.359Z,11.10
2022-08-11T07:00:18.051Z,7.18
2022-08-11T07:02:53.408Z,7.63
2022-08-11T07:05:29.001Z,9.50
2022-08-11T07:08:44.449Z,8.77
2022-08-11T07:11:46.348Z,8.20
2022-08-11T07:14:38.579Z,7.18
2022-08-11T07:17:11.382Z,9.27
2022-08-11T07:20:01.590Z,6.55
2022-08-11T07:22:51.488Z,5.68
2022-08-11T07:25:34.328Z,7.30
2022-08-11T07:28:22.908Z,6.20
2022-08-11T07:30:58.630Z,5.93
2022-08-11T07:34:08.269Z,6.00
2022-08-11T07:36:21.500Z,6.43
2022-08-11T07:39:00.010Z,7.80
2022-08-11T07:41:32.855Z,5.57
2022-08-11T07:44:09.397Z,5.45
2022-08-11T07:47:07.853Z,5.28
2022-08-11T07:49:55.980Z,5.57
2022-08-11T07:52:34.007Z,4.95
2022-08-11T07:55:08.454Z,5.30
2022-08-11T07:58:15.535Z,5.57
2022-08-11T08:01:09.892Z,7.70
2022-08-11T08:03:57.515Z,8.25
2022-08-11T08:06:44.751Z,5.53
2022-08-11T08:09:31.363Z,3.70
2022-08-11T08:12:20.867Z,3.85
2022-08-11T08:15:06.726Z,3.70
2022-08-11T08:18:09.841Z,3.22
2022-08-11T08:20:47.133Z,7.07
2022-08-11T08:23:15.929Z,4.55
2022-08-11T08:25:46.975Z,5.35
2022-08-11T08:28:21.946Z,3.90
2022-08-11T08:30:51.788Z,3.08
2022-08-11T08:33:23.179Z,3.05
2022-08-11T08:36:11.933Z,3.33
2022-08-11T08:38:48.510Z,3.00
2022-08-11T08:41:21.218Z,2.30
2022-08-11T08:43:59.915Z,4.05
2022-08-11T08:46:47.372Z,4.43
2022-08-11T08:49:18.398Z,7.53
2022-08-11T08:52:01.019Z,7.85
2022-08-11T08:54:43.503Z,3.38
2022-08-11T08:57:14.209Z,3.58
2022-08-11T08:59:51.482Z,3.40
2022-08-11T09:02:34.786Z,4.22
2022-08-11T09:05:04.245Z,3.83
2022-08-11T09:07:39.510Z,3.35
2022-08-11T09:10:11.053Z,2.80
2022-08-11T09:12:42.613Z,4.13
2022-08-11T09:15:19.308Z,2.90
2022-08-11T09:17:50.177Z,2.92
2022-08-11T09:20:22.801Z,4.18
2022-08-11T09:26:22.339Z,3.45
2022-08-11T09:29:00.321Z,5.35
2022-08-11T09:31:38.910Z,2.70
2022-08-11T09:34:09.269Z,2.92
2022-08-11T09:36:56.925Z,2.75
2022-08-11T09:39:43.896Z,3.70
2022-08-11T09:42:16.403Z,2.92
2022-08-11T09:44:51.003Z,3.70
2022-08-11T09:47:24.603Z,4.90
2022-08-11T09:50:00.491Z,2.42
2022-08-11T09:52:33.389Z,2.25
2022-08-11T09:55:03.004Z,2.15
2022-08-11T09:57:48.629Z,3.60
2022-08-11T10:00:18.053Z,3.05
2022-08-11T10:02:50.196Z,2.00
2022-08-11T10:05:37.947Z,2.78
2022-08-11T10:08:08.575Z,4.80
2022-08-11T10:10:38.657Z,2.55
2022-08-11T10:14:31.188Z,4.25
2022-08-11T10:16:15.215Z,2.67
2022-08-11T10:18:53.040Z,2.40
2022-08-11T10:21:30.647Z,2.10
2022-08-11T10:24:19.676Z,2.47
2022-08-11T10:27:00.223Z,2.20
2022-08-11T10:29:49.660Z,3.58
2022-08-11T10:32:49.383Z,3.17
2022-08-11T10:35:30.899Z,4.13
2022-08-11T10:38:06.506Z,3.15
2022-08-11T10:40:40.168Z,2.38
2022-08-11T10:43:13.541Z,3.83
2022-08-11T10:46:03.000Z,2.47
2022-08-11T10:48:36.748Z,2.50
2022-08-11T10:51:48.000Z,2.92
2022-08-11T10:54:24.391Z,3.15
2022-08-11T10:57:13.101Z,2.53
2022-08-11T10:59:43.527Z,2.67
2022-08-11T11:02:15.400Z,3.60
2022-08-11T11:04:59.309Z,3.38
2022-08-11T11:07:41.551Z,2.65
2022-08-11T11:10:13.157Z,1.67
2022-08-11T11:13:02.355Z,2.08
2022-08-11T11:15:50.392Z,1.80
2022-08-11T11:18:22.649Z,2.45
2022-08-11T11:20:57.892Z,3.30
2022-08-11T11:23:34.581Z,4.72
2022-08-11T11:26:28.037Z,2.28
2022-08-11T11:29:20.624Z,2.55
2022-08-11T11:31:58.635Z,3.17
2022-08-11T11:34:52.944Z,3.78
2022-08-11T11:37:24.441Z,2.20
2022-08-11T11:39:55.506Z,1.98
2022-08-11T11:42:24.988Z,3.22
2022-08-11T11:44:56.065Z,3.10
2022-08-11T11:47:26.329Z,2.65
2022-08-11T11:49:55.269Z,2.10
2022-08-11T11:52:25.146Z,1.77
2022-08-11T11:54:57.607Z,2.83
2022-08-11T11:57:59.311Z,2.15
2022-08-11T12:00:47.852Z,3.90
2022-08-11T12:03:19.096Z,2.03
2022-08-11T12:05:48.233Z,2.00
2022-08-11T12:08:18.061Z,2.47
2022-08-11T12:10:50.921Z,2.38
2022-08-11T12:13:37.941Z,2.15
2022-08-11T12:16:34.728Z,2.05
2022-08-11T12:18:58.181Z,2.25
2022-08-11T12:21:28.827Z,2.38
2022-08-11T12:24:16.556Z,2.67
2022-08-11T12:27:16.935Z,2.17
2022-08-11T12:29:52.775Z,2.05
2022-08-11T12:32:25.687Z,2.92
2022-08-11T12:34:58.134Z,2.00
2022-08-11T12:37:31.478Z,2.08
2022-08-11T12:40:43.152Z,2.47
2022-08-11T12:43:38.913Z,7.93
2022-08-11T12:46:15.562Z,2.25
2022-08-11T12:49:04.321Z,3.03
2022-08-11T12:52:13.964Z,2.55
2022-08-11T12:54:59.096Z,1.83
2022-08-11T12:57:47.784Z,2.17
2022-08-11T13:00:36.975Z,1.65
2022-08-11T13:03:26.313Z,3.15
2022-08-11T13:05:57.650Z,2.58
2022-08-11T13:08:27.977Z,2.63
2022-08-11T13:11:15.936Z,2.20
2022-08-11T13:13:55.313Z,1.77
2022-08-11T13:16:31.047Z,6.75
2022-08-11T13:19:01.333Z,1.83
2022-08-11T13:21:31.413Z,1.63
2022-08-11T13:24:02.992Z,5.00
2022-08-11T13:26:48.609Z,1.42
2022-08-11T13:29:23.254Z,1.60
2022-08-11T13:31:54.996Z,2.60
2022-08-11T13:34:26.904Z,2.33
2022-08-11T13:36:58.232Z,2.80
2022-08-11T13:39:31.439Z,1.55
2022-08-11T13:42:01.530Z,1.83
2022-08-11T13:44:31.592Z,1.40
2022-08-11T13:47:04.512Z,4.90
2022-08-11T13:49:39.877Z,2.67
2022-08-11T13:52:13.295Z,3.65
2022-08-11T13:54:48.106Z,1.50
2022-08-11T13:58:07.243Z,1.65
2022-08-11T14:00:12.942Z,2.60
2022-08-11T14:02:55.261Z,1.60
2022-08-11T14:05:28.103Z,1.67
2022-08-11T14:08:01.515Z,1.60
2022-08-11T14:10:33.152Z,1.40
2022-08-11T14:13:22.026Z,1.83
2022-08-11T14:15:53.426Z,1.45
2022-08-11T14:18:27.271Z,1.58
2022-08-11T14:21:15.745Z,1.55
2022-08-11T14:23:47.083Z,1.75
2022-08-11T14:26:27.838Z,1.42
2022-08-11T14:28:59.774Z,1.45
2022-08-11T14:31:30.117Z,7.80
2022-08-11T14:34:03.605Z,2.30
2022-08-11T14:36:35.125Z,4.20
2022-08-11T14:39:08.445Z,2.17
2022-08-11T14:42:07.562Z,1.60
2022-08-11T14:45:16.941Z,1.63
2022-08-11T14:47:49.121Z,2.42
2022-08-11T14:50:23.388Z,1.88
2022-08-11T14:52:55.217Z,3.47
2022-08-11T14:55:43.046Z,2.72
2022-08-11T14:58:12.543Z,2.60
2022-08-11T15:00:44.254Z,2.20
2022-08-11T15:03:14.286Z,2.92
2022-08-11T15:05:56.428Z,2.03
2022-08-11T15:08:49.213Z,1.50
2022-08-11T15:11:37.009Z,1.50
2022-08-11T15:14:07.906Z,1.75
2022-08-11T15:16:55.918Z,1.70
2022-08-11T15:19:40.227Z,2.60
2022-08-11T15:22:29.243Z,2.00
2022-08-11T15:24:59.876Z,2.55
2022-08-11T15:27:48.714Z,1.95
2022-08-11T15:30:35.033Z,3.10
2022-08-11T15:33:26.978Z,1.92
2022-08-11T15:36:15.311Z,2.65
2022-08-11T15:38:55.006Z,4.10
2022-08-11T15:41:45.876Z,4.30
2022-08-11T15:45:01.663Z,4.78
2022-08-11T15:47:35.994Z,2.70
2022-08-11T15:50:11.155Z,5.65
2022-08-11T15:52:48.414Z,4.63
2022-08-11T15:55:20.342Z,2.80
2022-08-11T15:58:08.852Z,3.08
2022-08-11T16:00:59.035Z,2.00
2022-08-11T16:04:08.207Z,2.38
2022-08-11T16:06:47.786Z,3.97
2022-08-11T16:09:21.770Z,2.38
2022-08-11T16:11:53.626Z,4.22
2022-08-11T16:14:41.403Z,1.90
2022-08-11T16:17:12.623Z,1.80
2022-08-11T16:19:44.033Z,2.22
2022-08-11T16:22:16.262Z,1.77
2022-08-11T16:27:04.683Z,1.90
2022-08-11T16:27:40.196Z,3.88
2022-08-11T16:30:10.403Z,1.50
2022-08-11T16:32:41.786Z,1.77
2022-08-11T16:35:30.106Z,1.83
2022-08-11T16:38:16.914Z,3.40
2022-08-11T16:40:48.154Z,2.20
2022-08-11T16:43:38.711Z,3.33
2022-08-11T16:46:26.527Z,4.53
2022-08-11T16:48:55.765Z,5.50
2022-08-11T16:51:24.790Z,1.70
2022-08-11T16:54:04.264Z,2.42
2022-08-11T16:56:39.155Z,3.08
2022-08-11T16:59:17.695Z,2.58
2022-08-11T17:01:53.493Z,1.60
2022-08-11T17:05:04.026Z,3.85
2022-08-11T17:07:49.884Z,1.35
2022-08-11T17:10:52.754Z,2.85
2022-08-11T17:13:32.942Z,1.88
2022-08-11T17:16:08.800Z,2.25
2022-08-11T17:18:50.258Z,1.77
2022-08-11T17:21:27.472Z,1.73
2022-08-11T17:23:59.410Z,4.82
2022-08-11T17:27:02.911Z,1.67
2022-08-11T17:29:54.347Z,1.63
2022-08-11T17:32:55.816Z,2.75
2022-08-11T17:35:32.992Z,2.05
2022-08-11T17:38:05.823Z,3.00
2022-08-11T17:40:38.786Z,3.35
2022-08-11T17:43:27.382Z,3.13
2022-08-11T17:46:14.799Z,1.60
2022-08-11T17:48:47.818Z,1.88
2022-08-11T17:51:35.981Z,2.53
2022-08-11T17:54:24.288Z,3.85
2022-08-11T17:57:21.087Z,1.70
2022-08-11T17:59:56.923Z,3.20
2022-08-11T18:02:47.420Z,2.83
2022-08-11T18:05:19.906Z,3.42
2022-08-11T18:08:09.445Z,2.05
2022-08-11T18:10:55.930Z,2.35
2022-08-11T18:13:44.037Z,2.55
2022-08-11T18:16:30.577Z,2.97
2022-08-11T18:19:16.750Z,2.25
2022-08-11T18:22:15.679Z,2.58
2022-08-11T18:25:07.370Z,2.65
2022-08-11T18:27:54.698Z,2.20
2022-08-11T18:30:42.230Z,4.45
2022-08-11T18:33:56.869Z,4.63
2022-08-11T18:36:39.947Z,3.00
2022-08-11T18:39:31.138Z,2.47
2022-08-11T18:42:29.385Z,2.40
2022-08-11T18:45:18.905Z,2.40
2022-08-11T18:48:09.293Z,2.72
2022-08-11T18:51:30.571Z,2.58
2022-08-11T18:54:10.008Z,2.33
2022-08-11T18:56:57.714Z,2.00
2022-08-11T18:59:45.495Z,3.70
2022-08-11T19:02:48.267Z,2.22
2022-08-11T19:06:35.621Z,4.45
2022-08-11T19:08:47.039Z,2.50
2022-08-11T19:11:33.966Z,4.43
2022-08-11T19:14:23.580Z,3.08
2022-08-11T19:17:10.384Z,4.05
2022-08-11T19:19:59.347Z,2.85
2022-08-11T19:22:47.950Z,2.55
2022-08-11T19:25:35.296Z,2.67
2022-08-11T19:28:25.206Z,4.40
2022-08-11T19:31:14.458Z,2.80
2022-08-11T19:34:10.373Z,2.70
2022-08-11T19:36:57.273Z,3.08
2022-08-11T19:39:45.474Z,2.80
2022-08-11T19:42:33.117Z,5.20
2022-08-11T19:45:20.786Z,2.53
2022-08-11T19:48:30.847Z,4.60
2022-08-11T19:51:16.386Z,3.80
2022-08-11T19:54:02.544Z,2.60
2022-08-11T19:56:48.533Z,6.88
2022-08-11T19:59:37.343Z,4.15
2022-08-11T20:02:24.553Z,3.10
2022-08-11T20:05:11.857Z,2.80
2022-08-11T20:07:58.837Z,5.55
2022-08-11T20:10:46.549Z,4.10
2022-08-11T20:13:33.094Z,3.28
2022-08-11T20:16:21.435Z,3.40
2022-08-11T20:19:09.732Z,3.72
2022-08-11T20:21:58.644Z,3.22
2022-08-11T20:24:44.432Z,4.07
2022-08-11T20:27:31.416Z,4.55
2022-08-11T20:30:20.241Z,3.10
2022-08-11T20:33:06.903Z,3.95
2022-08-11T20:35:54.496Z,4.82
2022-08-11T20:38:42.986Z,4.22
2022-08-11T20:41:30.667Z,28.48
2022-08-11T20:44:18.039Z,18.48
2022-08-11T20:47:06.494Z,10.50
2022-08-11T20:50:03.116Z,5.95
2022-08-11T20:52:50.116Z,3.00
2022-08-11T20:55:51.491Z,3.80
2022-08-11T21:01:47.228Z,5.45
2022-08-11T21:04:53.994Z,3.47
2022-08-11T21:07:55.130Z,3.83
2022-08-11T21:10:43.560Z,2.78
2022-08-11T21:13:33.384Z,3.58
2022-08-11T21:16:26.037Z,3.63
2022-08-11T21:19:18.084Z,3.58
2022-08-11T21:22:06.462Z,4.28
2022-08-11T21:24:55.037Z,4.57
2022-08-11T21:27:43.547Z,3.75
2022-08-11T21:30:29.879Z,5.43
2022-08-11T21:33:15.696Z,4.10
2022-08-11T21:36:01.642Z,3.65
2022-08-11T21:38:49.941Z,3.58
2022-08-11T21:41:36.950Z,4.10
2022-08-11T21:44:25.125Z,4.45
2022-08-11T21:47:12.445Z,3.60
2022-08-11T21:49:59.438Z,3.40
2022-08-11T21:52:46.396Z,3.40
2022-08-11T21:55:33.317Z,3.78
2022-08-11T21:58:20.290Z,4.30
2022-08-11T22:01:07.882Z,3.55
2022-08-11T22:03:54.449Z,4.65
2022-08-11T22:06:40.804Z,3.97
2022-08-11T22:09:27.023Z,3.72
2022-08-11T22:12:33.627Z,6.20
2022-08-11T22:15:18.538Z,3.50
2022-08-11T22:18:05.916Z,4.45
2022-08-11T22:20:53.520Z,5.22
2022-08-11T22:23:40.463Z,4.30
2022-08-11T22:26:26.503Z,3.95
2022-08-11T22:29:12.586Z,6.05
2022-08-11T22:31:59.437Z,7.45
2022-08-11T22:34:53.103Z,4.22
2022-08-11T22:37:40.653Z,3.63
2022-08-11T22:40:29.055Z,4.40
2022-08-11T22:43:14.928Z,5.07
2022-08-11T22:46:00.780Z,7.88
2022-08-11T22:48:49.124Z,5.85
2022-08-11T22:51:38.531Z,6.50
2022-08-11T22:54:27.093Z,8.35
2022-08-11T22:57:13.027Z,7.22
2022-08-11T22:59:59.475Z,5.43
2022-08-11T23:02:46.963Z,5.32
2022-08-11T23:05:33.752Z,5.47
2022-08-11T23:08:21.988Z,5.50
2022-08-11T23:11:09.301Z,5.43
2022-08-11T23:13:55.304Z,5.05
2022-08-11T23:16:41.199Z,5.75
2022-08-11T23:20:06.449Z,5.35
2022-08-11T23:22:36.954Z,5.40
2022-08-11T23:25:37.712Z,5.03
2022-08-11T23:28:24.513Z,4.88
2022-08-11T23:31:13.653Z,7.85
2022-08-11T23:34:04.196Z,4.85
2022-08-11T23:36:50.082Z,5.43
2022-08-11T23:39:36.270Z,5.78
2022-08-11T23:42:24.138Z,7.07
2022-08-11T23:45:10.120Z,6.47
2022-08-11T23:47:57.483Z,6.25
2022-08-11T23:50:43.951Z,6.10
2022-08-11T23:53:31.040Z,6.35
2022-08-11T23:56:17.004Z,6.72
2022-08-11T23:59:10.589Z,6.32
